sensor_id;sensor_type;location;lat;lon;timestamp;P1;durP1;ratioP1;P2;durP2;ratioP2
68614;SDS011;55593;51.994;5.882;2024-02-15T00:00:15;60.28;;;30.02;;
68614;SDS011;55593;51.994;5.882;2024-02-15T00:02:45;65.22;;;32.28;;
68614;SDS011;55593;51.994;5.882;2024-02-15T00:05:14;63.40;;;31.52;;
68614;SDS011;55593;51.994;5.882;2024-02-15T00:07:43;55.20;;;30.27;;
68614;SDS011;55593;51.994;5.882;2024-02-15T00:10:14;64.00;;;33.38;;
68614;SDS011;55593;51.994;5.882;2024-02-15T00:12:43;69.55;;;33.13;;
68614;SDS011;55593;51.994;5.882;2024-02-15T00:15:16;69.78;;;31.70;;
68614;SDS011;55593;51.994;5.882;2024-02-15T00:17:45;66.22;;;31.63;;
68614;SDS011;55593;51.994;5.882;2024-02-15T00:20:12;54.53;;;30.17;;
68614;SDS011;55593;51.994;5.882;2024-02-15T00:22:43;69.00;;;32.38;;
68614;SDS011;55593;51.994;5.882;2024-02-15T00:25:13;59.60;;;31.15;;
68614;SDS011;55593;51.994;5.882;2024-02-15T00:27:42;65.55;;;32.63;;
68614;SDS011;55593;51.994;5.882;2024-02-15T00:30:12;67.90;;;32.35;;
68614;SDS011;55593;51.994;5.882;2024-02-15T00:32:45;81.93;;;34.50;;
68614;SDS011;55593;51.994;5.882;2024-02-15T00:35:14;90.00;;;36.45;;
68614;SDS011;55593;51.994;5.882;2024-02-15T00:37:44;69.18;;;34.08;;
68614;SDS011;55593;51.994;5.882;2024-02-15T00:40:13;66.57;;;34.25;;
68614;SDS011;55593;51.994;5.882;2024-02-15T00:42:42;70.65;;;34.13;;
68614;SDS011;55593;51.994;5.882;2024-02-15T00:45:12;56.35;;;32.10;;
68614;SDS011;55593;51.994;5.882;2024-02-15T00:47:41;74.95;;;35.85;;
68614;SDS011;55593;51.994;5.882;2024-02-15T00:50:13;89.43;;;38.80;;
68614;SDS011;55593;51.994;5.882;2024-02-15T00:52:43;72.07;;;38.08;;
68614;SDS011;55593;51.994;5.882;2024-02-15T00:55:12;81.78;;;36.53;;
68614;SDS011;55593;51.994;5.882;2024-02-15T00:57:42;87.15;;;40.28;;
68614;SDS011;55593;51.994;5.882;2024-02-15T01:00:12;80.07;;;38.75;;
68614;SDS011;55593;51.994;5.882;2024-02-15T01:02:41;73.00;;;37.85;;
68614;SDS011;55593;51.994;5.882;2024-02-15T01:05:13;91.25;;;41.17;;
68614;SDS011;55593;51.994;5.882;2024-02-15T01:07:44;94.30;;;40.80;;
68614;SDS011;55593;51.994;5.882;2024-02-15T01:10:14;124.68;;;45.72;;
68614;SDS011;55593;51.994;5.882;2024-02-15T01:12:44;86.15;;;40.28;;
68614;SDS011;55593;51.994;5.882;2024-02-15T01:15:13;80.55;;;40.13;;
68614;SDS011;55593;51.994;5.882;2024-02-15T01:17:46;73.85;;;40.35;;
68614;SDS011;55593;51.994;5.882;2024-02-15T01:20:15;69.20;;;38.83;;
68614;SDS011;55593;51.994;5.882;2024-02-15T01:22:47;93.95;;;42.42;;
68614;SDS011;55593;51.994;5.882;2024-02-15T01:25:17;83.20;;;39.50;;
68614;SDS011;55593;51.994;5.882;2024-02-15T01:27:47;81.38;;;38.83;;
68614;SDS011;55593;51.994;5.882;2024-02-15T01:30:17;77.30;;;38.65;;
68614;SDS011;55593;51.994;5.882;2024-02-15T01:32:48;73.22;;;37.75;;
68614;SDS011;55593;51.994;5.882;2024-02-15T01:35:18;73.60;;;38.05;;
68614;SDS011;55593;51.994;5.882;2024-02-15T01:37:47;79.78;;;35.90;;
68614;SDS011;55593;51.994;5.882;2024-02-15T01:40:16;84.72;;;36.72;;
68614;SDS011;55593;51.994;5.882;2024-02-15T01:42:45;67.13;;;35.80;;
68614;SDS011;55593;51.994;5.882;2024-02-15T01:45:15;72.65;;;36.55;;
68614;SDS011;55593;51.994;5.882;2024-02-15T01:47:45;70.32;;;34.65;;
68614;SDS011;55593;51.994;5.882;2024-02-15T01:50:17;66.22;;;31.20;;
68614;SDS011;55593;51.994;5.882;2024-02-15T01:52:47;64.07;;;29.58;;
68614;SDS011;55593;51.994;5.882;2024-02-15T01:55:18;59.60;;;31.05;;
68614;SDS011;55593;51.994;5.882;2024-02-15T01:57:48;64.75;;;31.42;;
68614;SDS011;55593;51.994;5.882;2024-02-15T02:00:17;66.03;;;31.65;;
68614;SDS011;55593;51.994;5.882;2024-02-15T02:02:47;55.70;;;30.23;;
68614;SDS011;55593;51.994;5.882;2024-02-15T02:05:19;48.00;;;28.92;;
68614;SDS011;55593;51.994;5.882;2024-02-15T02:07:48;54.13;;;27.52;;
68614;SDS011;55593;51.994;5.882;2024-02-15T02:10:17;45.60;;;27.90;;
68614;SDS011;55593;51.994;5.882;2024-02-15T02:12:47;67.68;;;31.67;;
68614;SDS011;55593;51.994;5.882;2024-02-15T02:15:16;52.20;;;27.35;;
68614;SDS011;55593;51.994;5.882;2024-02-15T02:17:48;54.65;;;28.75;;
68614;SDS011;55593;51.994;5.882;2024-02-15T02:20:20;52.28;;;26.45;;
68614;SDS011;55593;51.994;5.882;2024-02-15T02:22:49;54.58;;;27.70;;
68614;SDS011;55593;51.994;5.882;2024-02-15T02:25:23;54.58;;;27.35;;
68614;SDS011;55593;51.994;5.882;2024-02-15T02:27:54;54.65;;;27.08;;
68614;SDS011;55593;51.994;5.882;2024-02-15T02:30:24;51.90;;;25.38;;
68614;SDS011;55593;51.994;5.882;2024-02-15T02:32:55;52.25;;;26.75;;
68614;SDS011;55593;51.994;5.882;2024-02-15T02:35:25;45.70;;;25.25;;
68614;SDS011;55593;51.994;5.882;2024-02-15T02:37:56;48.83;;;26.48;;
68614;SDS011;55593;51.994;5.882;2024-02-15T02:40:28;47.33;;;25.38;;
68614;SDS011;55593;51.994;5.882;2024-02-15T02:42:57;55.63;;;25.08;;
68614;SDS011;55593;51.994;5.882;2024-02-15T02:45:27;48.80;;;23.80;;
68614;SDS011;55593;51.994;5.882;2024-02-15T02:47:56;51.03;;;24.67;;
68614;SDS011;55593;51.994;5.882;2024-02-15T02:50:25;49.83;;;24.13;;
68614;SDS011;55593;51.994;5.882;2024-02-15T02:52:54;47.03;;;22.65;;
68614;SDS011;55593;51.994;5.882;2024-02-15T02:55:27;54.83;;;24.35;;
68614;SDS011;55593;51.994;5.882;2024-02-15T02:57:56;59.70;;;25.83;;
68614;SDS011;55593;51.994;5.882;2024-02-15T03:00:26;48.58;;;22.40;;
68614;SDS011;55593;51.994;5.882;2024-02-15T03:02:55;56.88;;;27.13;;
68614;SDS011;55593;51.994;5.882;2024-02-15T03:05:25;60.25;;;25.88;;
68614;SDS011;55593;51.994;5.882;2024-02-15T03:07:55;44.47;;;21.08;;
68614;SDS011;55593;51.994;5.882;2024-02-15T03:10:24;43.05;;;22.35;;
68614;SDS011;55593;51.994;5.882;2024-02-15T03:12:56;43.78;;;21.85;;
68614;SDS011;55593;51.994;5.882;2024-02-15T03:15:25;64.07;;;24.55;;
68614;SDS011;55593;51.994;5.882;2024-02-15T03:17:54;56.47;;;24.10;;
68614;SDS011;55593;51.994;5.882;2024-02-15T03:20:23;41.88;;;22.40;;
68614;SDS011;55593;51.994;5.882;2024-02-15T03:22:53;51.53;;;22.58;;
68614;SDS011;55593;51.994;5.882;2024-02-15T03:25:23;45.08;;;21.45;;
68614;SDS011;55593;51.994;5.882;2024-02-15T03:27:57;34.30;;;21.77;;
68614;SDS011;55593;51.994;5.882;2024-02-15T03:30:29;49.47;;;21.75;;
68614;SDS011;55593;51.994;5.882;2024-02-15T03:32:59;59.08;;;24.08;;
68614;SDS011;55593;51.994;5.882;2024-02-15T03:35:29;42.00;;;20.15;;
68614;SDS011;55593;51.994;5.882;2024-02-15T03:37:58;49.65;;;20.23;;
68614;SDS011;55593;51.994;5.882;2024-02-15T03:40:28;33.38;;;18.42;;
68614;SDS011;55593;51.994;5.882;2024-02-15T03:43:01;33.08;;;17.98;;
68614;SDS011;55593;51.994;5.882;2024-02-15T03:45:32;33.17;;;19.08;;
68614;SDS011;55593;51.994;5.882;2024-02-15T03:48:01;48.60;;;19.70;;
68614;SDS011;55593;51.994;5.882;2024-02-15T03:50:31;39.97;;;19.42;;
68614;SDS011;55593;51.994;5.882;2024-02-15T03:53:00;34.20;;;17.65;;
68614;SDS011;55593;51.994;5.882;2024-02-15T03:55:29;37.90;;;17.55;;
68614;SDS011;55593;51.994;5.882;2024-02-15T03:58:01;37.08;;;17.80;;
68614;SDS011;55593;51.994;5.882;2024-02-15T04:00:33;39.50;;;17.70;;
68614;SDS011;55593;51.994;5.882;2024-02-15T04:03:03;37.20;;;16.77;;
68614;SDS011;55593;51.994;5.882;2024-02-15T04:05:32;40.55;;;17.42;;
68614;SDS011;55593;51.994;5.882;2024-02-15T04:08:02;35.95;;;17.90;;
68614;SDS011;55593;51.994;5.882;2024-02-15T04:10:31;42.60;;;17.17;;
68614;SDS011;55593;51.994;5.882;2024-02-15T04:13:03;37.35;;;16.33;;
68614;SDS011;55593;51.994;5.882;2024-02-15T04:15:33;44.42;;;15.98;;
68614;SDS011;55593;51.994;5.882;2024-02-15T04:18:03;46.42;;;15.02;;
68614;SDS011;55593;51.994;5.882;2024-02-15T04:20:34;22.98;;;13.50;;
68614;SDS011;55593;51.994;5.882;2024-02-15T04:23:03;33.22;;;15.02;;
68614;SDS011;55593;51.994;5.882;2024-02-15T04:25:32;28.13;;;13.45;;
68614;SDS011;55593;51.994;5.882;2024-02-15T04:28:04;34.53;;;14.23;;
68614;SDS011;55593;51.994;5.882;2024-02-15T04:30:34;40.17;;;16.20;;
68614;SDS011;55593;51.994;5.882;2024-02-15T04:33:04;31.73;;;13.52;;
68614;SDS011;55593;51.994;5.882;2024-02-15T04:35:34;31.05;;;14.90;;
68614;SDS011;55593;51.994;5.882;2024-02-15T04:38:03;37.00;;;13.88;;
68614;SDS011;55593;51.994;5.882;2024-02-15T04:40:34;41.13;;;12.45;;
68614;SDS011;55593;51.994;5.882;2024-02-15T04:43:07;31.17;;;12.98;;
68614;SDS011;55593;51.994;5.882;2024-02-15T04:45:37;33.10;;;13.95;;
68614;SDS011;55593;51.994;5.882;2024-02-15T04:48:07;33.63;;;11.85;;
68614;SDS011;55593;51.994;5.882;2024-02-15T04:50:36;27.50;;;12.82;;
68614;SDS011;55593;51.994;5.882;2024-02-15T04:53:08;30.70;;;13.10;;
68614;SDS011;55593;51.994;5.882;2024-02-15T04:55:37;34.17;;;12.63;;
68614;SDS011;55593;51.994;5.882;2024-02-15T04:58:09;28.83;;;12.45;;
68614;SDS011;55593;51.994;5.882;2024-02-15T05:00:38;23.13;;;11.23;;
68614;SDS011;55593;51.994;5.882;2024-02-15T05:03:08;31.95;;;11.63;;
68614;SDS011;55593;51.994;5.882;2024-02-15T05:05:37;33.83;;;11.25;;
68614;SDS011;55593;51.994;5.882;2024-02-15T05:08:06;25.30;;;11.35;;
68614;SDS011;55593;51.994;5.882;2024-02-15T05:10:35;29.75;;;11.70;;
68614;SDS011;55593;51.994;5.882;2024-02-15T05:13:04;32.53;;;12.63;;
68614;SDS011;55593;51.994;5.882;2024-02-15T05:15:36;35.88;;;12.90;;
68614;SDS011;55593;51.994;5.882;2024-02-15T05:18:05;31.33;;;11.13;;
68614;SDS011;55593;51.994;5.882;2024-02-15T05:20:35;27.08;;;11.13;;
68614;SDS011;55593;51.994;5.882;2024-02-15T05:23:04;28.25;;;11.10;;
68614;SDS011;55593;51.994;5.882;2024-02-15T05:25:33;30.23;;;11.30;;
68614;SDS011;55593;51.994;5.882;2024-02-15T05:28:03;25.50;;;11.93;;
68614;SDS011;55593;51.994;5.882;2024-02-15T05:30:36;33.10;;;12.13;;
68614;SDS011;55593;51.994;5.882;2024-02-15T05:33:06;23.85;;;9.82;;
68614;SDS011;55593;51.994;5.882;2024-02-15T05:35:36;23.48;;;11.18;;
68614;SDS011;55593;51.994;5.882;2024-02-15T05:38:07;22.98;;;10.15;;
68614;SDS011;55593;51.994;5.882;2024-02-15T05:40:41;35.97;;;12.00;;
68614;SDS011;55593;51.994;5.882;2024-02-15T05:43:10;25.05;;;11.45;;
68614;SDS011;55593;51.994;5.882;2024-02-15T05:45:43;31.60;;;10.85;;
68614;SDS011;55593;51.994;5.882;2024-02-15T05:48:12;30.55;;;11.68;;
68614;SDS011;55593;51.994;5.882;2024-02-15T05:50:41;32.20;;;12.30;;
68614;SDS011;55593;51.994;5.882;2024-02-15T05:53:11;27.25;;;10.93;;
68614;SDS011;55593;51.994;5.882;2024-02-15T05:55:40;40.28;;;13.35;;
68614;SDS011;55593;51.994;5.882;2024-02-15T05:58:10;33.42;;;11.70;;
68614;SDS011;55593;51.994;5.882;2024-02-15T06:00:39;28.67;;;10.15;;
68614;SDS011;55593;51.994;5.882;2024-02-15T06:03:15;28.73;;;10.63;;
68614;SDS011;55593;51.994;5.882;2024-02-15T06:05:44;25.38;;;9.57;;
68614;SDS011;55593;51.994;5.882;2024-02-15T06:08:13;25.63;;;10.25;;
68614;SDS011;55593;51.994;5.882;2024-02-15T06:10:43;34.00;;;10.90;;
68614;SDS011;55593;51.994;5.882;2024-02-15T06:13:14;45.38;;;13.15;;
68614;SDS011;55593;51.994;5.882;2024-02-15T06:15:45;27.10;;;10.00;;
68614;SDS011;55593;51.994;5.882;2024-02-15T06:18:18;24.10;;;10.38;;
68614;SDS011;55593;51.994;5.882;2024-02-15T06:20:49;26.55;;;10.32;;
68614;SDS011;55593;51.994;5.882;2024-02-15T06:23:19;25.38;;;10.48;;
68614;SDS011;55593;51.994;5.882;2024-02-15T06:25:50;29.77;;;10.13;;
68614;SDS011;55593;51.994;5.882;2024-02-15T06:28:20;23.25;;;10.90;;
68614;SDS011;55593;51.994;5.882;2024-02-15T06:31:03;19.02;;;9.40;;
68614;SDS011;55593;51.994;5.882;2024-02-15T06:33:45;29.08;;;9.88;;
68614;SDS011;55593;51.994;5.882;2024-02-15T06:36:29;21.02;;;9.77;;
68614;SDS011;55593;51.994;5.882;2024-02-15T06:39:11;20.27;;;10.48;;
68614;SDS011;55593;51.994;5.882;2024-02-15T06:41:52;25.40;;;10.52;;
68614;SDS011;55593;51.994;5.882;2024-02-15T06:44:22;24.92;;;11.63;;
68614;SDS011;55593;51.994;5.882;2024-02-15T06:46:54;28.65;;;10.90;;
68614;SDS011;55593;51.994;5.882;2024-02-15T06:49:23;28.88;;;17.23;;
68614;SDS011;55593;51.994;5.882;2024-02-15T06:51:53;25.40;;;12.85;;
68614;SDS011;55593;51.994;5.882;2024-02-15T06:54:22;24.77;;;11.85;;
68614;SDS011;55593;51.994;5.882;2024-02-15T06:56:51;25.33;;;11.57;;
68614;SDS011;55593;51.994;5.882;2024-02-15T06:59:20;20.77;;;11.52;;
68614;SDS011;55593;51.994;5.882;2024-02-15T07:01:53;19.92;;;10.63;;
68614;SDS011;55593;51.994;5.882;2024-02-15T07:04:23;26.60;;;9.80;;
68614;SDS011;55593;51.994;5.882;2024-02-15T07:06:52;21.80;;;11.05;;
68614;SDS011;55593;51.994;5.882;2024-02-15T07:09:23;20.17;;;11.23;;
68614;SDS011;55593;51.994;5.882;2024-02-15T07:11:53;22.63;;;10.70;;
68614;SDS011;55593;51.994;5.882;2024-02-15T07:14:22;23.23;;;10.55;;
68614;SDS011;55593;51.994;5.882;2024-02-15T07:16:56;22.20;;;9.43;;
68614;SDS011;55593;51.994;5.882;2024-02-15T07:19:25;22.60;;;10.77;;
68614;SDS011;55593;51.994;5.882;2024-02-15T07:21:54;19.40;;;10.18;;
68614;SDS011;55593;51.994;5.882;2024-02-15T07:24:23;20.63;;;10.75;;
68614;SDS011;55593;51.994;5.882;2024-02-15T07:26:53;18.95;;;9.68;;
68614;SDS011;55593;51.994;5.882;2024-02-15T07:29:23;16.02;;;8.77;;
68614;SDS011;55593;51.994;5.882;2024-02-15T07:31:56;18.25;;;9.00;;
68614;SDS011;55593;51.994;5.882;2024-02-15T07:34:26;23.08;;;10.95;;
68614;SDS011;55593;51.994;5.882;2024-02-15T07:36:55;19.77;;;9.98;;
68614;SDS011;55593;51.994;5.882;2024-02-15T07:39:24;25.63;;;11.05;;
68614;SDS011;55593;51.994;5.882;2024-02-15T07:41:53;23.73;;;10.30;;
68614;SDS011;55593;51.994;5.882;2024-02-15T07:44:24;27.15;;;12.25;;
68614;SDS011;55593;51.994;5.882;2024-02-15T07:46:58;18.35;;;9.40;;
68614;SDS011;55593;51.994;5.882;2024-02-15T07:49:28;24.60;;;12.00;;
68614;SDS011;55593;51.994;5.882;2024-02-15T07:51:58;21.25;;;11.20;;
68614;SDS011;55593;51.994;5.882;2024-02-15T07:54:27;22.05;;;11.45;;
68614;SDS011;55593;51.994;5.882;2024-02-15T07:56:59;19.67;;;11.00;;
68614;SDS011;55593;51.994;5.882;2024-02-15T07:59:29;27.58;;;10.82;;
68614;SDS011;55593;51.994;5.882;2024-02-15T08:02:02;21.48;;;11.30;;
68614;SDS011;55593;51.994;5.882;2024-02-15T08:04:32;20.48;;;10.98;;
68614;SDS011;55593;51.994;5.882;2024-02-15T08:07:06;17.83;;;10.57;;
68614;SDS011;55593;51.994;5.882;2024-02-15T08:09:37;22.63;;;11.30;;
68614;SDS011;55593;51.994;5.882;2024-02-15T08:12:06;20.25;;;11.07;;
68614;SDS011;55593;51.994;5.882;2024-02-15T08:14:35;21.17;;;10.27;;
68614;SDS011;55593;51.994;5.882;2024-02-15T08:17:08;23.25;;;11.65;;
68614;SDS011;55593;51.994;5.882;2024-02-15T08:19:39;18.60;;;10.30;;
68614;SDS011;55593;51.994;5.882;2024-02-15T08:22:08;21.88;;;10.90;;
68614;SDS011;55593;51.994;5.882;2024-02-15T08:24:38;20.90;;;12.23;;
68614;SDS011;55593;51.994;5.882;2024-02-15T08:27:07;18.13;;;10.77;;
68614;SDS011;55593;51.994;5.882;2024-02-15T08:29:36;21.95;;;11.48;;
68614;SDS011;55593;51.994;5.882;2024-02-15T08:32:08;18.33;;;10.13;;
68614;SDS011;55593;51.994;5.882;2024-02-15T08:34:37;14.95;;;9.75;;
68614;SDS011;55593;51.994;5.882;2024-02-15T08:37:06;16.75;;;9.00;;
68614;SDS011;55593;51.994;5.882;2024-02-15T08:39:35;16.40;;;11.13;;
68614;SDS011;55593;51.994;5.882;2024-02-15T08:42:05;14.45;;;9.98;;
68614;SDS011;55593;51.994;5.882;2024-02-15T08:44:34;11.38;;;9.57;;
68614;SDS011;55593;51.994;5.882;2024-02-15T08:47:03;12.52;;;9.55;;
68614;SDS011;55593;51.994;5.882;2024-02-15T08:49:35;15.60;;;10.60;;
68614;SDS011;55593;51.994;5.882;2024-02-15T08:52:06;43.22;;;14.75;;
68614;SDS011;55593;51.994;5.882;2024-02-15T08:54:35;12.80;;;9.07;;
68614;SDS011;55593;51.994;5.882;2024-02-15T08:57:05;20.83;;;10.82;;
68614;SDS011;55593;51.994;5.882;2024-02-15T08:59:35;13.60;;;9.18;;
68614;SDS011;55593;51.994;5.882;2024-02-15T09:02:04;22.67;;;10.95;;
68614;SDS011;55593;51.994;5.882;2024-02-15T09:04:36;13.25;;;9.77;;
68614;SDS011;55593;51.994;5.882;2024-02-15T09:07:06;22.08;;;11.02;;
68614;SDS011;55593;51.994;5.882;2024-02-15T09:09:36;22.50;;;12.57;;
68614;SDS011;55593;51.994;5.882;2024-02-15T09:12:05;13.75;;;10.52;;
68614;SDS011;55593;51.994;5.882;2024-02-15T09:14:35;14.02;;;10.48;;
68614;SDS011;55593;51.994;5.882;2024-02-15T09:17:05;18.05;;;10.02;;
68614;SDS011;55593;51.994;5.882;2024-02-15T09:19:38;35.63;;;12.10;;
68614;SDS011;55593;51.994;5.882;2024-02-15T09:22:08;14.50;;;10.13;;
68614;SDS011;55593;51.994;5.882;2024-02-15T09:24:37;16.27;;;10.68;;
68614;SDS011;55593;51.994;5.882;2024-02-15T09:27:06;23.70;;;10.30;;
68614;SDS011;55593;51.994;5.882;2024-02-15T09:29:37;17.88;;;9.88;;
68614;SDS011;55593;51.994;5.882;2024-02-15T09:32:08;17.90;;;11.20;;
68614;SDS011;55593;51.994;5.882;2024-02-15T09:34:40;16.38;;;11.05;;
68614;SDS011;55593;51.994;5.882;2024-02-15T09:37:09;16.13;;;9.77;;
68614;SDS011;55593;51.994;5.882;2024-02-15T09:39:39;19.98;;;9.85;;
68614;SDS011;55593;51.994;5.882;2024-02-15T09:42:08;20.25;;;11.38;;
68614;SDS011;55593;51.994;5.882;2024-02-15T09:44:37;19.75;;;10.85;;
68614;SDS011;55593;51.994;5.882;2024-02-15T09:47:06;19.90;;;10.73;;
68614;SDS011;55593;51.994;5.882;2024-02-15T09:49:40;11.60;;;8.73;;
68614;SDS011;55593;51.994;5.882;2024-02-15T09:52:09;20.85;;;9.57;;
68614;SDS011;55593;51.994;5.882;2024-02-15T09:54:42;23.98;;;10.60;;
68614;SDS011;55593;51.994;5.882;2024-02-15T09:57:11;21.30;;;9.93;;
68614;SDS011;55593;51.994;5.882;2024-02-15T09:59:41;19.42;;;9.15;;
68614;SDS011;55593;51.994;5.882;2024-02-15T10:02:10;20.55;;;9.85;;
68614;SDS011;55593;51.994;5.882;2024-02-15T10:04:42;18.63;;;8.75;;
68614;SDS011;55593;51.994;5.882;2024-02-15T10:07:12;24.30;;;9.32;;
68614;SDS011;55593;51.994;5.882;2024-02-15T10:09:44;26.27;;;9.23;;
68614;SDS011;55593;51.994;5.882;2024-02-15T10:12:13;19.80;;;7.75;;
68614;SDS011;55593;51.994;5.882;2024-02-15T10:14:47;14.20;;;6.85;;
68614;SDS011;55593;51.994;5.882;2024-02-15T10:17:18;17.38;;;8.05;;
68614;SDS011;55593;51.994;5.882;2024-02-15T10:20:05;26.35;;;7.57;;
68614;SDS011;55593;51.994;5.882;2024-02-15T10:22:36;17.52;;;6.82;;
68614;SDS011;55593;51.994;5.882;2024-02-15T10:25:11;15.07;;;7.07;;
68614;SDS011;55593;51.994;5.882;2024-02-15T10:27:41;17.98;;;7.68;;
68614;SDS011;55593;51.994;5.882;2024-02-15T10:30:14;13.05;;;6.95;;
68614;SDS011;55593;51.994;5.882;2024-02-15T10:32:44;16.50;;;7.85;;
68614;SDS011;55593;51.994;5.882;2024-02-15T10:35:23;16.02;;;7.85;;
68614;SDS011;55593;51.994;5.882;2024-02-15T10:37:52;17.17;;;9.07;;
68614;SDS011;55593;51.994;5.882;2024-02-15T10:40:33;21.40;;;8.43;;
68614;SDS011;55593;51.994;5.882;2024-02-15T10:43:02;21.83;;;10.13;;
68614;SDS011;55593;51.994;5.882;2024-02-15T10:45:34;23.45;;;9.73;;
68614;SDS011;55593;51.994;5.882;2024-02-15T10:48:05;16.55;;;8.30;;
68614;SDS011;55593;51.994;5.882;2024-02-15T10:50:38;18.33;;;9.15;;
68614;SDS011;55593;51.994;5.882;2024-02-15T10:53:10;15.52;;;9.23;;
68614;SDS011;55593;51.994;5.882;2024-02-15T10:55:44;23.40;;;9.90;;
68614;SDS011;55593;51.994;5.882;2024-02-15T10:58:21;26.08;;;8.90;;
68614;SDS011;55593;51.994;5.882;2024-02-15T11:00:55;18.95;;;9.25;;
68614;SDS011;55593;51.994;5.882;2024-02-15T11:03:25;20.73;;;9.38;;
68614;SDS011;55593;51.994;5.882;2024-02-15T11:05:59;13.98;;;7.82;;
68614;SDS011;55593;51.994;5.882;2024-02-15T11:08:30;27.15;;;9.85;;
68614;SDS011;55593;51.994;5.882;2024-02-15T11:11:00;17.00;;;9.02;;
68614;SDS011;55593;51.994;5.882;2024-02-15T11:13:30;25.95;;;9.82;;
68614;SDS011;55593;51.994;5.882;2024-02-15T11:16:00;27.95;;;9.80;;
68614;SDS011;55593;51.994;5.882;2024-02-15T11:18:42;19.85;;;8.35;;
68614;SDS011;55593;51.994;5.882;2024-02-15T11:21:17;24.95;;;8.70;;
68614;SDS011;55593;51.994;5.882;2024-02-15T11:23:46;19.15;;;9.07;;
68614;SDS011;55593;51.994;5.882;2024-02-15T11:35:06;16.23;;;7.40;;
68614;SDS011;55593;51.994;5.882;2024-02-15T11:37:54;14.10;;;6.93;;
68614;SDS011;55593;51.994;5.882;2024-02-15T11:46:20;17.63;;;8.75;;
68614;SDS011;55593;51.994;5.882;2024-02-15T11:48:51;17.25;;;7.75;;
68614;SDS011;55593;51.994;5.882;2024-02-15T11:51:31;18.98;;;7.57;;
68614;SDS011;55593;51.994;5.882;2024-02-15T11:54:05;20.52;;;7.70;;
68614;SDS011;55593;51.994;5.882;2024-02-15T11:56:52;15.63;;;7.18;;
68614;SDS011;55593;51.994;5.882;2024-02-15T11:59:39;21.83;;;8.77;;
68614;SDS011;55593;51.994;5.882;2024-02-15T12:02:19;19.25;;;8.73;;
68614;SDS011;55593;51.994;5.882;2024-02-15T12:05:01;20.70;;;7.00;;
68614;SDS011;55593;51.994;5.882;2024-02-15T12:07:53;17.45;;;8.30;;
68614;SDS011;55593;51.994;5.882;2024-02-15T12:10:38;17.83;;;7.47;;
68614;SDS011;55593;51.994;5.882;2024-02-15T12:13:19;18.25;;;8.35;;
68614;SDS011;55593;51.994;5.882;2024-02-15T12:16:01;13.45;;;6.97;;
68614;SDS011;55593;51.994;5.882;2024-02-15T12:18:43;15.15;;;7.97;;
68614;SDS011;55593;51.994;5.882;2024-02-15T12:21:18;18.67;;;7.78;;
68614;SDS011;55593;51.994;5.882;2024-02-15T12:23:49;14.93;;;8.52;;
68614;SDS011;55593;51.994;5.882;2024-02-15T12:26:21;18.60;;;8.32;;
68614;SDS011;55593;51.994;5.882;2024-02-15T12:28:53;17.20;;;7.57;;
68614;SDS011;55593;51.994;5.882;2024-02-15T12:31:24;14.45;;;7.18;;
68614;SDS011;55593;51.994;5.882;2024-02-15T12:33:59;16.60;;;8.07;;
68614;SDS011;55593;51.994;5.882;2024-02-15T12:36:32;19.50;;;8.20;;
68614;SDS011;55593;51.994;5.882;2024-02-15T12:39:02;13.95;;;6.60;;
68614;SDS011;55593;51.994;5.882;2024-02-15T12:41:40;24.48;;;7.97;;
68614;SDS011;55593;51.994;5.882;2024-02-15T12:44:10;15.82;;;6.85;;
68614;SDS011;55593;51.994;5.882;2024-02-15T12:46:39;17.25;;;7.18;;
68614;SDS011;55593;51.994;5.882;2024-02-15T12:49:12;16.67;;;7.25;;
68614;SDS011;55593;51.994;5.882;2024-02-15T12:55:06;14.57;;;7.07;;
68614;SDS011;55593;51.994;5.882;2024-02-15T12:57:45;12.05;;;6.65;;
68614;SDS011;55593;51.994;5.882;2024-02-15T13:00:17;15.93;;;6.95;;
68614;SDS011;55593;51.994;5.882;2024-02-15T13:02:48;13.13;;;5.57;;
68614;SDS011;55593;51.994;5.882;2024-02-15T13:05:18;15.38;;;6.07;;
68614;SDS011;55593;51.994;5.882;2024-02-15T13:07:49;12.98;;;5.70;;
68614;SDS011;55593;51.994;5.882;2024-02-15T13:10:18;13.68;;;6.10;;
68614;SDS011;55593;51.994;5.882;2024-02-15T13:12:51;18.20;;;6.65;;
68614;SDS011;55593;51.994;5.882;2024-02-15T13:15:21;14.95;;;5.82;;
68614;SDS011;55593;51.994;5.882;2024-02-15T13:17:53;9.98;;;4.88;;
68614;SDS011;55593;51.994;5.882;2024-02-15T13:20:23;15.40;;;5.65;;
68614;SDS011;55593;51.994;5.882;2024-02-15T13:22:58;10.02;;;4.40;;
68614;SDS011;55593;51.994;5.882;2024-02-15T13:25:34;16.13;;;4.90;;
68614;SDS011;55593;51.994;5.882;2024-02-15T13:28:06;12.07;;;4.82;;
68614;SDS011;55593;51.994;5.882;2024-02-15T13:30:36;14.02;;;4.38;;
68614;SDS011;55593;51.994;5.882;2024-02-15T13:33:07;12.80;;;4.53;;
68614;SDS011;55593;51.994;5.882;2024-02-15T13:35:36;10.30;;;4.10;;
68614;SDS011;55593;51.994;5.882;2024-02-15T13:38:05;10.18;;;4.25;;
68614;SDS011;55593;51.994;5.882;2024-02-15T13:40:40;11.90;;;4.80;;
68614;SDS011;55593;51.994;5.882;2024-02-15T13:43:12;10.70;;;5.15;;
68614;SDS011;55593;51.994;5.882;2024-02-15T13:45:43;12.57;;;4.78;;
68614;SDS011;55593;51.994;5.882;2024-02-15T13:48:14;10.05;;;4.93;;
68614;SDS011;55593;51.994;5.882;2024-02-15T13:50:43;11.43;;;4.82;;
68614;SDS011;55593;51.994;5.882;2024-02-15T13:53:13;10.60;;;5.20;;
68614;SDS011;55593;51.994;5.882;2024-02-15T13:55:43;10.90;;;4.50;;
68614;SDS011;55593;51.994;5.882;2024-02-15T13:58:15;9.23;;;4.00;;
68614;SDS011;55593;51.994;5.882;2024-02-15T14:00:44;9.50;;;4.57;;
68614;SDS011;55593;51.994;5.882;2024-02-15T14:03:14;6.78;;;3.67;;
68614;SDS011;55593;51.994;5.882;2024-02-15T14:05:44;12.38;;;4.68;;
68614;SDS011;55593;51.994;5.882;2024-02-15T14:08:15;13.73;;;4.30;;
68614;SDS011;55593;51.994;5.882;2024-02-15T14:10:46;11.02;;;4.72;;
68614;SDS011;55593;51.994;5.882;2024-02-15T14:13:18;12.63;;;4.82;;
68614;SDS011;55593;51.994;5.882;2024-02-15T14:15:48;12.52;;;4.45;;
68614;SDS011;55593;51.994;5.882;2024-02-15T14:18:18;10.85;;;4.57;;
68614;SDS011;55593;51.994;5.882;2024-02-15T14:20:47;10.20;;;4.22;;
68614;SDS011;55593;51.994;5.882;2024-02-15T14:23:16;14.77;;;5.72;;
68614;SDS011;55593;51.994;5.882;2024-02-15T14:25:45;10.35;;;5.15;;
68614;SDS011;55593;51.994;5.882;2024-02-15T14:28:18;14.13;;;5.53;;
68614;SDS011;55593;51.994;5.882;2024-02-15T14:30:48;13.75;;;6.03;;
68614;SDS011;55593;51.994;5.882;2024-02-15T14:33:29;14.10;;;5.95;;
68614;SDS011;55593;51.994;5.882;2024-02-15T14:35:59;16.15;;;6.72;;
68614;SDS011;55593;51.994;5.882;2024-02-15T14:38:29;15.48;;;6.20;;
68614;SDS011;55593;51.994;5.882;2024-02-15T14:40:59;12.23;;;5.82;;
68614;SDS011;55593;51.994;5.882;2024-02-15T14:43:34;11.10;;;6.45;;
68614;SDS011;55593;51.994;5.882;2024-02-15T14:46:04;10.73;;;6.15;;
68614;SDS011;55593;51.994;5.882;2024-02-15T14:48:35;12.65;;;6.65;;
68614;SDS011;55593;51.994;5.882;2024-02-15T14:51:05;15.65;;;7.07;;
68614;SDS011;55593;51.994;5.882;2024-02-15T14:53:35;13.82;;;6.47;;
68614;SDS011;55593;51.994;5.882;2024-02-15T14:56:04;15.20;;;6.35;;
68614;SDS011;55593;51.994;5.882;2024-02-15T14:58:36;13.98;;;5.97;;
68614;SDS011;55593;51.994;5.882;2024-02-15T15:01:06;12.77;;;6.20;;
68614;SDS011;55593;51.994;5.882;2024-02-15T15:03:35;11.68;;;5.97;;
68614;SDS011;55593;51.994;5.882;2024-02-15T15:06:06;11.98;;;5.80;;